XML Sitemap

This is a XML Sitemap which is supposed to be processed by search engines which follow the XML Sitemap standard like Ask.com, Bing, Google and Yahoo.
It was generated using the WordPress content management system and the Google Sitemap Generator Plugin by Arne Brachhold.
You can find more information about XML sitemaps on sitemaps.org and Google's list of sitemap programs.

URLPriorityChange frequencyLast modified (GMT)
https://www.pseudotecnico.org/2005/06/10/blog-dominio/10%Monthly2005-06-10 08:00
https://www.pseudotecnico.org/2005/04/19/adobemacromedia/10%Monthly2005-06-10 05:54
https://www.pseudotecnico.org/2005/04/13/portatile/10%Monthly2005-06-10 05:54
https://www.pseudotecnico.org/2005/04/13/google/10%Monthly2005-06-10 05:55
https://www.pseudotecnico.org/2005/04/11/eccomi/10%Monthly1999-11-30 00:00
https://www.pseudotecnico.org/2005/04/06/windows-e-lo-stand-by/10%Monthly2005-06-10 05:55
https://www.pseudotecnico.org/2005/04/03/firefox-103-in-arrivo/10%Monthly2005-06-10 05:55
https://www.pseudotecnico.org/2005/04/02/addio/10%Monthly2005-06-10 05:55
https://www.pseudotecnico.org/2005/04/02/pesce-daprile/10%Monthly2005-06-10 05:56
https://www.pseudotecnico.org/2005/04/01/il-nuovo-nome-di-mozilla-suite/10%Monthly2005-06-10 05:56
https://www.pseudotecnico.org/2005/03/29/campagna-acquisti-per-google/10%Monthly2005-06-10 05:56
https://www.pseudotecnico.org/2005/03/27/monitor-trasparenti/10%Monthly2005-06-10 05:56
https://www.pseudotecnico.org/2005/03/26/consigli-da-ms-per-un-player-mp3/10%Monthly2005-06-10 05:57
https://www.pseudotecnico.org/2005/03/24/prova-sul-campo-dellipod-shuffle/10%Monthly2005-06-10 05:58
https://www.pseudotecnico.org/2005/03/18/esistono-cluster-e-cluster/10%Monthly2005-06-10 05:58
https://www.pseudotecnico.org/2005/03/18/qualita-apple/10%Monthly2005-06-10 05:58
https://www.pseudotecnico.org/2005/03/16/applestore/10%Monthly2005-06-10 05:58
https://www.pseudotecnico.org/2005/03/15/mouse-apple-a-2-tasti/10%Monthly2005-06-10 05:59
https://www.pseudotecnico.org/2005/04/20/ot-le-giornate-no/10%Monthly1999-11-30 00:00
https://www.pseudotecnico.org/2005/04/20/nuovi-acquisti/10%Monthly2005-06-10 05:54
https://www.pseudotecnico.org/2005/06/09/sbs-usb-bluetooth-adapter/10%Monthly2006-05-09 05:16
https://www.pseudotecnico.org/2005/06/08/sony-ericsson-k700i/10%Monthly2005-06-10 05:50
https://www.pseudotecnico.org/2005/06/08/ancora-loro/10%Monthly2005-06-10 08:02
https://www.pseudotecnico.org/2005/06/07/mintel/10%Monthly2005-06-10 08:04
https://www.pseudotecnico.org/2005/06/06/tophost-ancora/10%Monthly2005-06-10 08:07
https://www.pseudotecnico.org/2005/06/05/senza-parole/10%Monthly2005-06-10 08:08
https://www.pseudotecnico.org/2005/06/05/una-tipica-domenica-mattina/10%Monthly2005-06-10 05:51
https://www.pseudotecnico.org/2005/06/05/mozilla-italia-problema-risolto/10%Monthly2005-06-10 05:51
https://www.pseudotecnico.org/2005/06/04/cosa-succede-al-sito-di-mozilla-italia/10%Monthly2005-06-10 08:15
https://www.pseudotecnico.org/2005/06/03/il-modo-di-guardare-il-mondo/10%Monthly2005-06-10 05:51
https://www.pseudotecnico.org/2005/06/02/eos-350d-in-giardino/10%Monthly2005-06-10 05:52
https://www.pseudotecnico.org/2005/05/28/cosa-ci-aspettiamo-da-firefox-11/10%Monthly2005-06-10 05:52
https://www.pseudotecnico.org/2005/05/18/mi-manca-il-tempo/10%Monthly2005-06-10 05:52
https://www.pseudotecnico.org/2005/05/02/mac-os-x-tiger/10%Monthly2005-06-10 05:53
https://www.pseudotecnico.org/2005/04/25/sconfitto-da-uno-spyware/10%Monthly2005-06-10 05:53
https://www.pseudotecnico.org/2005/04/22/mediaworld-e-saturn/10%Monthly2005-06-10 05:54
https://www.pseudotecnico.org/2005/04/22/nuovi-acquisti-pt2/10%Monthly2005-06-10 05:54
https://www.pseudotecnico.org/2005/03/13/qualche-link/10%Monthly2005-06-10 05:59
https://www.pseudotecnico.org/2005/03/12/aggiornamenti-vari/10%Monthly2005-06-10 05:59
https://www.pseudotecnico.org/2005/01/28/google-fa-spese-al-mozilla-store/10%Monthly2005-06-10 06:05
https://www.pseudotecnico.org/2005/01/26/mac-mini-e-prezzi/10%Monthly2005-06-10 06:05
https://www.pseudotecnico.org/2005/01/06/amd64-e-lassistenza/10%Monthly2005-06-10 06:06
https://www.pseudotecnico.org/2004/12/27/amd64/10%Monthly2005-06-10 06:06
https://www.pseudotecnico.org/2004/12/13/mozilla-e-l10n-un-rapporto-difficile/10%Monthly2005-06-10 06:06
https://www.pseudotecnico.org/2004/12/08/ben-goodger/10%Monthly2005-06-10 06:06
https://www.pseudotecnico.org/2004/12/08/cittadini-di-serie-b/10%Monthly2005-06-10 06:06
https://www.pseudotecnico.org/2004/11/30/ieoe-laccoppiata-vincente/10%Monthly2005-06-10 06:07
https://www.pseudotecnico.org/2004/11/20/microsoft-scriviamo-alla-bsa/10%Monthly2005-06-10 06:07
https://www.pseudotecnico.org/2004/11/18/riflessioni-in-ordine-sparso/10%Monthly2005-06-10 06:07
https://www.pseudotecnico.org/2004/11/13/richiesta-di-preventivo/10%Monthly2005-06-10 06:07
https://www.pseudotecnico.org/2004/11/12/ecco-litaliano/10%Monthly2005-06-10 06:07
https://www.pseudotecnico.org/2004/11/10/firefox-10-e-qui-e-litaliano/10%Monthly2007-06-19 09:16
https://www.pseudotecnico.org/2004/11/05/mozilla-come-volevasi-dimostrare/10%Monthly2005-06-10 06:08
https://www.pseudotecnico.org/2004/11/04/ultimi-aggiornamenti-da-mozilla/10%Monthly2005-06-10 06:08
https://www.pseudotecnico.org/2004/10/31/mozilla-e-pubblicita-sul-nyt-pt2/10%Monthly2005-06-10 06:09
https://www.pseudotecnico.org/2004/10/31/la-terra-vista-dal-cielo/10%Monthly2005-06-10 06:10
https://www.pseudotecnico.org/2005/01/30/fud-anti-firefox-non-credo/10%Monthly2005-06-10 06:05
https://www.pseudotecnico.org/2005/01/31/perche-i-mouse-del-mac-hanno-un-solo-tasto/10%Monthly2005-06-10 06:05
https://www.pseudotecnico.org/2005/03/06/pb-loggetto-del-desiderio/10%Monthly2005-06-10 06:00
https://www.pseudotecnico.org/2005/03/05/caricare-un-ipod-shuffle-al-polo-nord/10%Monthly2005-06-10 06:00
https://www.pseudotecnico.org/2005/03/03/risposta-a-tiziano-caviglia/10%Monthly2005-06-10 06:00
https://www.pseudotecnico.org/2005/02/27/icq-su-mac-osx/10%Monthly2005-06-10 06:00
https://www.pseudotecnico.org/2005/02/25/non-ci-sara-a-breve-un-firefox-102/10%Monthly2005-06-10 06:00
https://www.pseudotecnico.org/2005/02/25/aggiornamento-firefox-101/10%Monthly2005-06-10 06:01
https://www.pseudotecnico.org/2005/02/25/disponibile-firefox-101/10%Monthly2005-06-10 06:01
https://www.pseudotecnico.org/2005/02/21/shopping-mania/10%Monthly2005-06-10 06:01
https://www.pseudotecnico.org/2005/02/20/libri/10%Monthly2005-06-10 06:03
https://www.pseudotecnico.org/2005/02/20/pornodipendenza-no-grazie/10%Monthly2005-06-10 06:03
https://www.pseudotecnico.org/2005/02/19/accessori-per-mini-mac/10%Monthly2005-06-10 06:03
https://www.pseudotecnico.org/2005/02/13/firefox-101/10%Monthly2005-06-10 06:03
https://www.pseudotecnico.org/2005/02/13/safari-problema-risolto/10%Monthly2005-06-10 06:03
https://www.pseudotecnico.org/2005/02/12/finalmente-mini-mac/10%Monthly2005-06-10 06:04
https://www.pseudotecnico.org/2005/02/05/i-siti-della-politica-e-gli-standard/10%Monthly2005-06-10 06:04
https://www.pseudotecnico.org/2005/02/01/icone-di-firefox/10%Monthly2005-06-10 06:04
https://www.pseudotecnico.org/2005/02/01/le-dimensioni-contano-mini-pc-vs-mini-mac/10%Monthly2005-06-10 06:04
https://www.pseudotecnico.org/2004/10/31/creazione-pdf-con-pdfcreator/10%Monthly2005-06-10 06:11